createdAt,value
2023-05-09T00:00:04.157Z,13.90
2023-05-09T00:02:54.660Z,13.88
2023-05-09T00:05:42.681Z,13.88
2023-05-09T00:08:32.229Z,13.94
2023-05-09T00:11:20.122Z,13.79
2023-05-09T00:14:08.651Z,13.89
2023-05-09T00:16:57.520Z,13.87
2023-05-09T00:19:45.930Z,13.80
2023-05-09T00:22:33.847Z,13.76
2023-05-09T00:25:23.101Z,13.88
2023-05-09T00:28:11.476Z,13.86
2023-05-09T00:30:59.504Z,13.87
2023-05-09T00:33:47.668Z,13.87
2023-05-09T00:36:35.597Z,13.92
2023-05-09T00:39:23.825Z,13.94
2023-05-09T00:42:13.237Z,13.91
2023-05-09T00:45:01.877Z,13.88
2023-05-09T00:47:49.968Z,13.90
2023-05-09T00:50:38.079Z,13.92
2023-05-09T00:53:27.019Z,13.91
2023-05-09T00:56:16.442Z,13.85
2023-05-09T00:59:06.621Z,13.90
2023-05-09T01:01:54.568Z,13.90
2023-05-09T01:04:44.252Z,13.91
2023-05-09T01:07:38.325Z,13.94
2023-05-09T01:10:35.933Z,13.92
2023-05-09T01:13:28.238Z,13.94
2023-05-09T01:16:24.775Z,13.91
2023-05-09T01:19:37.474Z,13.98
2023-05-09T01:22:30.958Z,14.03
2023-05-09T01:25:42.002Z,14.03
2023-05-09T01:28:45.546Z,14.05
2023-05-09T01:31:39.407Z,14.01
2023-05-09T01:34:29.535Z,14.08
2023-05-09T01:37:20.733Z,14.02
2023-05-09T01:40:13.157Z,14.03
2023-05-09T01:43:04.729Z,13.69
2023-05-09T01:45:54.654Z,13.96
2023-05-09T01:48:45.540Z,13.80
2023-05-09T01:51:35.609Z,13.75
2023-05-09T01:54:26.529Z,13.52
2023-05-09T01:57:15.868Z,13.44
2023-05-09T02:00:07.870Z,13.25
2023-05-09T02:03:02.266Z,13.14
2023-05-09T02:05:53.143Z,13.08
2023-05-09T02:08:42.331Z,12.99
2023-05-09T02:11:30.224Z,13.03
2023-05-09T02:14:18.876Z,12.87
2023-05-09T02:17:09.435Z,12.90
2023-05-09T02:19:57.640Z,12.92
2023-05-09T02:22:48.102Z,13.01
2023-05-09T02:25:36.108Z,12.99
2023-05-09T02:28:26.782Z,13.03
2023-05-09T02:31:17.468Z,12.98
2023-05-09T02:34:06.519Z,12.83
2023-05-09T02:36:56.322Z,12.74
2023-05-09T02:39:46.153Z,12.64
2023-05-09T02:42:34.052Z,12.54
2023-05-09T02:45:22.388Z,12.48
2023-05-09T02:48:10.350Z,12.44
2023-05-09T02:50:58.831Z,12.41
2023-05-09T02:53:46.878Z,12.32
2023-05-09T02:56:36.262Z,12.21
2023-05-09T02:59:24.422Z,12.19
2023-05-09T03:02:12.553Z,12.12
2023-05-09T03:05:01.363Z,12.10
2023-05-09T03:07:50.528Z,12.20
2023-05-09T03:10:39.041Z,12.14
2023-05-09T03:13:28.260Z,12.07
2023-05-09T03:16:19.546Z,11.90
2023-05-09T03:19:08.337Z,11.91
2023-05-09T03:21:56.481Z,11.86
2023-05-09T03:24:44.895Z,11.91
2023-05-09T03:27:32.915Z,11.83
2023-05-09T03:30:23.576Z,11.86
2023-05-09T03:33:12.567Z,11.90
2023-05-09T03:36:00.692Z,11.88
2023-05-09T03:38:49.111Z,12.04
2023-05-09T03:41:38.227Z,12.06
2023-05-09T03:44:27.819Z,12.06
2023-05-09T03:47:17.314Z,12.09
2023-05-09T03:50:07.106Z,12.08
2023-05-09T03:52:56.948Z,12.08
2023-05-09T03:55:45.412Z,12.17
2023-05-09T03:58:34.886Z,12.23
2023-05-09T04:01:23.225Z,12.27
2023-05-09T04:04:12.673Z,12.32
2023-05-09T04:07:00.841Z,12.42
2023-05-09T04:09:49.462Z,12.48
2023-05-09T04:12:38.031Z,12.59
2023-05-09T04:15:26.273Z,12.67
2023-05-09T04:18:15.340Z,12.79
2023-05-09T04:21:05.161Z,12.89
2023-05-09T04:23:53.605Z,13.02
2023-05-09T04:26:48.754Z,13.12
2023-05-09T04:29:41.851Z,13.21
2023-05-09T04:32:31.211Z,13.16
2023-05-09T04:35:20.862Z,13.25
2023-05-09T04:38:12.910Z,13.41
2023-05-09T04:41:01.811Z,13.49
2023-05-09T04:43:49.918Z,13.53
2023-05-09T04:46:38.160Z,13.60
2023-05-09T04:49:26.536Z,13.70
2023-05-09T04:52:14.441Z,13.85
2023-05-09T04:55:04.241Z,13.86
2023-05-09T04:57:57.566Z,13.94
2023-05-09T05:00:46.392Z,14.01
2023-05-09T05:03:35.900Z,14.07
2023-05-09T05:06:24.167Z,14.16
2023-05-09T05:09:12.995Z,14.26
2023-05-09T05:12:04.174Z,14.37
2023-05-09T05:14:53.708Z,14.46
2023-05-09T05:17:43.971Z,14.45
2023-05-09T05:20:32.493Z,14.65
2023-05-09T05:23:20.779Z,14.69
2023-05-09T05:26:10.969Z,14.85
2023-05-09T05:29:01.200Z,14.96
2023-05-09T05:31:49.280Z,15.08
2023-05-09T05:34:39.413Z,15.23
2023-05-09T05:37:27.965Z,15.37
2023-05-09T05:40:16.873Z,15.44
2023-05-09T05:43:07.664Z,15.58
2023-05-09T05:45:59.780Z,15.72
2023-05-09T05:48:49.492Z,15.79
2023-05-09T05:51:37.743Z,15.92
2023-05-09T05:54:27.634Z,15.64
2023-05-09T05:57:15.975Z,15.87
2023-05-09T06:00:07.311Z,15.90
2023-05-09T06:03:02.872Z,15.88
2023-05-09T06:06:02.865Z,16.02
2023-05-09T06:08:51.060Z,15.94
2023-05-09T06:11:39.687Z,16.00
2023-05-09T06:14:27.624Z,15.95
2023-05-09T06:20:05.770Z,16.01
2023-05-09T06:22:53.651Z,16.02
2023-05-09T06:25:41.750Z,16.00
2023-05-09T06:28:29.640Z,16.09
2023-05-09T06:31:17.708Z,16.14
2023-05-09T06:34:06.086Z,16.49
2023-05-09T06:36:55.526Z,16.43
2023-05-09T06:39:43.459Z,16.75
2023-05-09T06:42:33.743Z,16.78
2023-05-09T06:45:21.918Z,17.13
2023-05-09T06:48:09.963Z,17.23
2023-05-09T06:50:57.868Z,17.02
2023-05-09T06:53:47.382Z,16.92
2023-05-09T06:56:35.674Z,17.08
2023-05-09T06:59:23.627Z,17.29
2023-05-09T07:02:12.209Z,17.28
2023-05-09T07:05:00.254Z,17.39
2023-05-09T07:07:48.543Z,17.53
2023-05-09T07:10:38.582Z,17.44
2023-05-09T07:13:26.900Z,17.67
2023-05-09T07:16:14.884Z,17.50
2023-05-09T07:19:04.087Z,17.71
2023-05-09T07:21:51.989Z,17.79
2023-05-09T07:24:39.886Z,17.70
2023-05-09T07:27:29.468Z,17.51
2023-05-09T07:30:17.691Z,17.36
2023-05-09T07:33:06.710Z,17.04
2023-05-09T07:35:54.736Z,17.14
2023-05-09T07:38:42.760Z,17.08
2023-05-09T07:41:30.677Z,16.95
2023-05-09T07:44:19.914Z,16.94
2023-05-09T07:47:09.016Z,16.93
2023-05-09T07:49:57.040Z,17.13
2023-05-09T07:52:46.609Z,17.30
2023-05-09T07:55:34.530Z,17.22
2023-05-09T07:58:23.007Z,17.04
2023-05-09T08:01:12.229Z,16.91
2023-05-09T08:04:00.523Z,16.91
2023-05-09T08:06:50.035Z,16.75
2023-05-09T08:09:37.989Z,16.78
2023-05-09T08:12:25.997Z,16.88
2023-05-09T08:15:15.095Z,17.06
2023-05-09T08:18:06.633Z,17.44
2023-05-09T08:20:54.603Z,17.44
2023-05-09T08:23:42.684Z,18.18
2023-05-09T08:26:30.662Z,18.39
2023-05-09T08:29:18.955Z,18.34
2023-05-09T08:32:06.998Z,18.35
2023-05-09T08:34:56.503Z,18.20
2023-05-09T08:37:44.445Z,18.80
2023-05-09T08:40:37.036Z,19.10
2023-05-09T08:43:25.510Z,19.01
2023-05-09T08:46:15.248Z,19.01
2023-05-09T08:49:06.115Z,19.20
2023-05-09T08:51:55.722Z,19.19
2023-05-09T08:54:44.007Z,18.83
2023-05-09T08:57:33.583Z,18.53
2023-05-09T09:00:22.595Z,18.62
2023-05-09T09:03:11.462Z,18.49
2023-05-09T09:06:00.379Z,18.62
2023-05-09T09:08:51.909Z,18.61
2023-05-09T09:11:41.850Z,18.72
2023-05-09T09:14:33.323Z,18.76
2023-05-09T09:17:27.926Z,18.85
2023-05-09T09:20:17.651Z,19.01
2023-05-09T09:23:10.952Z,18.40
2023-05-09T09:26:02.019Z,18.29
2023-05-09T09:28:50.036Z,18.28
2023-05-09T09:31:37.982Z,18.31
2023-05-09T09:34:26.991Z,18.32
2023-05-09T09:37:23.076Z,18.53
2023-05-09T09:40:12.863Z,18.91
2023-05-09T09:43:02.294Z,19.02
2023-05-09T09:45:51.740Z,19.11
2023-05-09T09:48:40.439Z,19.38
2023-05-09T09:51:30.110Z,19.57
2023-05-09T09:54:18.066Z,19.57
2023-05-09T09:57:06.490Z,20.15
2023-05-09T10:00:00.484Z,20.38
2023-05-09T10:02:50.340Z,20.68
2023-05-09T10:05:40.865Z,21.05
2023-05-09T10:08:28.786Z,21.17
2023-05-09T10:11:17.066Z,20.99
2023-05-09T10:14:05.041Z,21.00
2023-05-09T10:16:57.688Z,21.25
2023-05-09T10:19:47.527Z,20.98
2023-05-09T10:22:37.282Z,20.54
2023-05-09T10:25:33.792Z,21.10
2023-05-09T10:28:28.765Z,20.93
2023-05-09T10:31:22.047Z,20.78
2023-05-09T10:34:13.007Z,20.34
2023-05-09T10:37:01.522Z,20.21
2023-05-09T10:39:53.347Z,20.17
2023-05-09T10:42:41.569Z,20.41
2023-05-09T10:45:30.313Z,20.79
2023-05-09T10:48:19.362Z,20.97
2023-05-09T10:51:09.423Z,20.74
2023-05-09T10:53:57.924Z,20.83
2023-05-09T10:56:47.521Z,21.14
2023-05-09T10:59:38.084Z,21.24
2023-05-09T11:02:29.469Z,21.11
2023-05-09T11:05:18.912Z,21.84
2023-05-09T11:08:21.968Z,21.84
2023-05-09T11:11:25.551Z,21.70
2023-05-09T11:14:30.133Z,21.54
2023-05-09T11:17:29.628Z,20.93
2023-05-09T11:20:17.608Z,21.06
2023-05-09T11:23:06.981Z,21.17
2023-05-09T11:26:06.548Z,21.27
2023-05-09T11:28:56.894Z,21.57
2023-05-09T11:32:06.058Z,21.22
2023-05-09T11:35:06.471Z,21.35
2023-05-09T11:38:01.682Z,21.00
2023-05-09T11:40:49.612Z,21.09
2023-05-09T11:43:39.848Z,21.24
2023-05-09T11:46:28.082Z,21.38
2023-05-09T11:49:17.225Z,21.17
2023-05-09T11:52:06.319Z,20.65
2023-05-09T11:54:54.391Z,20.53
2023-05-09T11:57:44.857Z,20.78
2023-05-09T12:00:34.233Z,20.69
2023-05-09T12:03:22.329Z,20.58
2023-05-09T12:06:10.650Z,20.36
2023-05-09T12:08:58.966Z,20.29
2023-05-09T12:11:50.830Z,20.11
2023-05-09T12:14:39.492Z,20.05
2023-05-09T12:17:29.351Z,20.48
2023-05-09T12:20:17.594Z,20.74
2023-05-09T12:23:05.936Z,20.89
2023-05-09T12:25:55.298Z,21.00
2023-05-09T12:28:44.565Z,21.20
2023-05-09T12:31:32.999Z,21.39
2023-05-09T12:34:23.417Z,21.44
2023-05-09T12:37:15.979Z,21.07
2023-05-09T12:40:08.358Z,21.37
2023-05-09T12:43:00.789Z,21.85
2023-05-09T12:45:53.614Z,22.22
2023-05-09T12:48:42.068Z,22.24
2023-05-09T12:51:31.464Z,21.69
2023-05-09T12:54:22.377Z,21.68
2023-05-09T12:57:22.655Z,21.67
2023-05-09T13:00:12.110Z,21.59
2023-05-09T13:03:00.237Z,21.63
2023-05-09T13:05:55.556Z,22.23
2023-05-09T13:08:44.825Z,22.66
2023-05-09T13:11:32.796Z,23.10
2023-05-09T13:14:23.969Z,23.06
2023-05-09T13:17:12.348Z,22.79
2023-05-09T13:20:00.332Z,22.37
2023-05-09T13:23:24.673Z,20.31
2023-05-09T13:26:14.087Z,21.81
2023-05-09T13:29:02.015Z,21.61
2023-05-09T13:31:50.195Z,21.28
2023-05-09T13:34:38.107Z,21.08
2023-05-09T13:37:27.816Z,20.80
2023-05-09T13:40:16.040Z,20.69
2023-05-09T13:43:05.831Z,20.45
2023-05-09T13:45:53.836Z,20.29
2023-05-09T13:48:42.134Z,20.46
2023-05-09T13:51:30.070Z,20.57
2023-05-09T13:54:20.384Z,20.77
2023-05-09T13:57:08.544Z,20.90
2023-05-09T13:59:58.489Z,20.99
2023-05-09T14:02:46.395Z,21.04
2023-05-09T14:05:35.333Z,21.21
2023-05-09T14:08:23.515Z,21.87
2023-05-09T14:11:12.021Z,22.27
2023-05-09T14:13:59.980Z,22.45
2023-05-09T14:16:50.220Z,22.70
2023-05-09T14:19:38.173Z,23.31
2023-05-09T14:22:26.466Z,23.44
2023-05-09T14:25:14.389Z,23.16
2023-05-09T14:28:02.483Z,23.28
2023-05-09T14:30:50.518Z,22.41
2023-05-09T14:33:40.693Z,22.13
2023-05-09T14:36:29.027Z,21.66
2023-05-09T14:39:17.045Z,21.44
2023-05-09T14:42:05.823Z,21.40
2023-05-09T14:44:54.014Z,21.43
2023-05-09T14:47:42.142Z,21.40
2023-05-09T14:50:32.385Z,21.35
2023-05-09T14:53:20.665Z,21.07
2023-05-09T14:56:09.639Z,20.95
2023-05-09T14:58:57.586Z,21.03
2023-05-09T15:01:46.688Z,21.22
2023-05-09T15:04:34.680Z,21.22
2023-05-09T15:07:24.699Z,20.93
2023-05-09T15:10:12.993Z,20.88
2023-05-09T15:13:02.733Z,20.80
2023-05-09T15:15:53.008Z,20.66
2023-05-09T15:18:45.255Z,20.08
2023-05-09T15:21:34.315Z,19.88
2023-05-09T15:24:23.794Z,19.76
2023-05-09T15:27:11.829Z,19.74
2023-05-09T15:30:00.705Z,19.63
2023-05-09T15:32:48.652Z,19.57
2023-05-09T15:35:37.175Z,19.42
2023-05-09T15:38:25.075Z,19.34
2023-05-09T15:41:14.728Z,19.14
2023-05-09T15:44:02.640Z,19.16
2023-05-09T15:46:50.890Z,18.79
2023-05-09T15:49:38.849Z,19.21
2023-05-09T15:52:28.008Z,19.23
2023-05-09T15:55:16.093Z,19.23
2023-05-09T15:58:05.904Z,19.19
2023-05-09T16:00:54.166Z,19.06
2023-05-09T16:03:43.355Z,18.93
2023-05-09T16:06:32.848Z,19.01
2023-05-09T16:09:20.915Z,19.04
2023-05-09T16:12:09.296Z,19.01
2023-05-09T16:14:58.825Z,19.04
2023-05-09T16:17:46.917Z,19.00
2023-05-09T16:20:35.296Z,18.86
2023-05-09T16:23:24.358Z,18.88
2023-05-09T16:26:12.464Z,18.81
2023-05-09T16:29:01.762Z,18.70
2023-05-09T16:31:51.341Z,18.63
2023-05-09T16:34:39.320Z,18.61
2023-05-09T16:37:29.132Z,18.58
2023-05-09T16:40:17.272Z,18.50
2023-05-09T16:43:05.744Z,18.47
2023-05-09T16:45:53.705Z,18.45
2023-05-09T16:48:43.302Z,18.30
2023-05-09T16:51:31.739Z,18.26
2023-05-09T16:54:19.895Z,18.28
2023-05-09T16:57:08.338Z,18.18
2023-05-09T16:59:56.561Z,17.96
2023-05-09T17:02:44.597Z,17.49
2023-05-09T17:05:34.124Z,17.29
2023-05-09T17:08:22.425Z,17.23
2023-05-09T17:11:10.957Z,17.14
2023-05-09T17:13:58.936Z,16.94
2023-05-09T17:16:47.548Z,16.87
2023-05-09T17:19:36.678Z,16.72
2023-05-09T17:22:27.030Z,16.68
2023-05-09T17:25:14.945Z,16.68
2023-05-09T17:28:03.404Z,16.64
2023-05-09T17:30:51.326Z,16.78
2023-05-09T17:33:40.106Z,16.75
2023-05-09T17:36:28.037Z,16.72
2023-05-09T17:39:17.845Z,16.61
2023-05-09T17:42:06.822Z,16.58
2023-05-09T17:44:54.877Z,16.57
2023-05-09T17:47:43.218Z,16.53
2023-05-09T17:50:31.410Z,16.53
2023-05-09T17:53:19.777Z,16.47
2023-05-09T17:56:09.160Z,16.43
2023-05-09T17:58:57.313Z,16.41
2023-05-09T18:01:45.301Z,16.40
2023-05-09T18:04:34.524Z,16.39
2023-05-09T18:07:22.801Z,16.32
2023-05-09T18:10:11.803Z,16.32
2023-05-09T18:13:01.090Z,16.27
2023-05-09T18:15:49.515Z,16.18
2023-05-09T18:18:37.486Z,16.14
2023-05-09T18:21:25.721Z,16.10
2023-05-09T18:24:16.207Z,16.11
2023-05-09T18:27:05.298Z,16.08
2023-05-09T18:29:54.797Z,16.08
2023-05-09T18:32:43.110Z,16.28
2023-05-09T18:35:31.567Z,16.25
2023-05-09T18:38:19.670Z,15.72
2023-05-09T18:41:10.264Z,15.32
2023-05-09T18:43:59.061Z,15.13
2023-05-09T18:46:48.342Z,14.99
2023-05-09T18:49:36.514Z,14.93
2023-05-09T18:52:24.430Z,14.90
2023-05-09T18:55:13.339Z,14.86
2023-05-09T18:58:01.300Z,14.75
2023-05-09T19:00:49.470Z,14.76
2023-05-09T19:03:43.349Z,14.70
2023-05-09T19:06:32.554Z,14.62
2023-05-09T19:09:20.528Z,14.59
2023-05-09T19:12:09.696Z,14.60
2023-05-09T19:14:57.603Z,14.60
2023-05-09T19:17:45.826Z,14.61
2023-05-09T19:20:35.177Z,14.53
2023-05-09T19:23:23.760Z,14.53
2023-05-09T19:26:11.680Z,14.53
2023-05-09T19:29:01.782Z,14.50
2023-05-09T19:31:51.019Z,14.63
2023-05-09T19:34:38.928Z,14.71
2023-05-09T19:37:28.488Z,14.65
2023-05-09T19:40:16.636Z,14.57
2023-05-09T19:43:04.895Z,14.64
2023-05-09T19:45:52.896Z,14.58
2023-05-09T19:48:41.336Z,14.44
2023-05-09T19:51:29.549Z,14.59
2023-05-09T19:54:18.856Z,14.63
2023-05-09T19:57:06.845Z,14.68
2023-05-09T19:59:55.731Z,14.73
2023-05-09T20:02:43.763Z,14.71
2023-05-09T20:05:32.025Z,14.61
2023-05-09T20:08:19.946Z,14.67
2023-05-09T20:11:09.642Z,14.64
2023-05-09T20:13:57.638Z,14.62
2023-05-09T20:16:46.406Z,14.54
2023-05-09T20:19:34.418Z,14.57
2023-05-09T20:22:22.560Z,14.54
2023-05-09T20:25:13.028Z,14.50
2023-05-09T20:28:02.759Z,14.46
2023-05-09T20:30:50.873Z,14.43
2023-05-09T20:33:40.194Z,14.40
2023-05-09T20:36:28.451Z,14.48
2023-05-09T20:39:17.862Z,14.35
2023-05-09T20:42:06.533Z,14.37
2023-05-09T20:44:56.497Z,14.42
2023-05-09T20:47:44.428Z,14.39
2023-05-09T20:50:32.681Z,14.32
2023-05-09T20:53:20.616Z,14.31
2023-05-09T20:56:08.554Z,14.34
2023-05-09T20:58:59.806Z,14.30
2023-05-09T21:01:49.324Z,14.35
2023-05-09T21:04:37.307Z,14.31
2023-05-09T21:07:25.539Z,14.25
2023-05-09T21:10:13.779Z,14.20
2023-05-09T21:13:02.148Z,14.21
2023-05-09T21:15:50.805Z,14.21
2023-05-09T21:18:40.415Z,14.17
2023-05-09T21:21:28.445Z,14.16
2023-05-09T21:24:16.605Z,14.17
2023-05-09T21:27:04.815Z,14.23
2023-05-09T21:29:52.995Z,14.19
2023-05-09T21:32:40.933Z,14.12
2023-05-09T21:35:30.918Z,14.23
2023-05-09T21:38:18.835Z,14.09
2023-05-09T21:41:07.144Z,14.15
2023-05-09T21:43:55.037Z,14.04
2023-05-09T21:46:46.288Z,14.07
2023-05-09T21:49:34.698Z,14.18
2023-05-09T21:52:24.040Z,14.06
2023-05-09T21:55:12.016Z,14.04
2023-05-09T21:58:00.228Z,14.05
2023-05-09T22:00:48.154Z,14.01
2023-05-09T22:03:36.847Z,13.80
2023-05-09T22:06:24.882Z,13.99
2023-05-09T22:09:14.337Z,13.88
2023-05-09T22:12:02.302Z,13.84
2023-05-09T22:14:56.325Z,14.01
2023-05-09T22:17:44.916Z,13.99
2023-05-09T22:20:33.307Z,13.91
2023-05-09T22:23:21.283Z,13.94
2023-05-09T22:26:10.900Z,13.93
2023-05-09T22:28:58.808Z,13.89
2023-05-09T22:31:46.920Z,13.88
2023-05-09T22:34:34.982Z,13.92
2023-05-09T22:37:23.221Z,13.83
2023-05-09T22:40:11.657Z,13.83
2023-05-09T22:43:02.015Z,13.85
2023-05-09T22:45:50.034Z,13.89
2023-05-09T22:48:38.121Z,13.85
2023-05-09T22:51:26.152Z,13.88
2023-05-09T22:54:14.211Z,13.89
2023-05-09T22:57:02.111Z,13.82
2023-05-09T22:59:51.769Z,13.82
2023-05-09T23:02:39.858Z,13.76
2023-05-09T23:05:28.078Z,13.75
2023-05-09T23:08:16.070Z,13.74
2023-05-09T23:11:05.368Z,13.72
2023-05-09T23:13:53.300Z,13.69
2023-05-09T23:16:42.844Z,13.54
2023-05-09T23:19:30.767Z,13.45
2023-05-09T23:22:18.904Z,13.44
2023-05-09T23:25:08.401Z,13.35
2023-05-09T23:27:56.400Z,13.36
2023-05-09T23:30:44.339Z,13.30
2023-05-09T23:33:33.975Z,13.22
2023-05-09T23:36:21.968Z,13.14
2023-05-09T23:39:10.206Z,13.13
2023-05-09T23:41:58.432Z,13.03
2023-05-09T23:44:46.612Z,12.94
2023-05-09T23:47:34.577Z,12.94
2023-05-09T23:50:24.460Z,12.92
2023-05-09T23:53:12.336Z,12.89
2023-05-09T23:56:00.453Z,12.88
2023-05-09T23:58:48.388Z,12.89
